sensor_id;sensor_type;location;lat;lon;timestamp;temperature;humidity
19174;DHT22;9719;49.322;8.536;2022-07-10T00:04:24;18.50;71.10
19174;DHT22;9719;49.322;8.536;2022-07-10T00:09:27;18.30;71.50
19174;DHT22;9719;49.322;8.536;2022-07-10T00:14:30;18.20;72.10
19174;DHT22;9719;49.322;8.536;2022-07-10T00:19:32;18.10;72.50
19174;DHT22;9719;49.322;8.536;2022-07-10T00:24:35;17.90;73.00
19174;DHT22;9719;49.322;8.536;2022-07-10T00:29:37;17.90;73.60
19174;DHT22;9719;49.322;8.536;2022-07-10T00:34:40;17.90;73.80
19174;DHT22;9719;49.322;8.536;2022-07-10T00:39:43;17.90;74.10
19174;DHT22;9719;49.322;8.536;2022-07-10T00:44:46;17.90;74.30
19174;DHT22;9719;49.322;8.536;2022-07-10T00:49:48;18.00;74.20
19174;DHT22;9719;49.322;8.536;2022-07-10T00:54:51;18.00;74.30
19174;DHT22;9719;49.322;8.536;2022-07-10T00:59:54;18.10;74.50
19174;DHT22;9719;49.322;8.536;2022-07-10T01:04:57;18.10;74.40
19174;DHT22;9719;49.322;8.536;2022-07-10T01:10:00;18.10;74.40
19174;DHT22;9719;49.322;8.536;2022-07-10T01:15:03;18.10;74.30
19174;DHT22;9719;49.322;8.536;2022-07-10T01:20:06;18.10;74.30
19174;DHT22;9719;49.322;8.536;2022-07-10T01:25:10;18.00;74.30
19174;DHT22;9719;49.322;8.536;2022-07-10T01:30:12;18.00;74.50
19174;DHT22;9719;49.322;8.536;2022-07-10T01:35:15;18.00;74.50
19174;DHT22;9719;49.322;8.536;2022-07-10T01:40:19;17.90;74.70
19174;DHT22;9719;49.322;8.536;2022-07-10T01:45:21;18.00;74.60
19174;DHT22;9719;49.322;8.536;2022-07-10T01:50:23;18.00;74.50
19174;DHT22;9719;49.322;8.536;2022-07-10T01:55:27;18.00;74.50
19174;DHT22;9719;49.322;8.536;2022-07-10T02:00:29;18.00;74.70
19174;DHT22;9719;49.322;8.536;2022-07-10T02:05:31;18.10;74.70
19174;DHT22;9719;49.322;8.536;2022-07-10T02:10:35;18.20;74.50
19174;DHT22;9719;49.322;8.536;2022-07-10T02:15:37;18.20;74.10
19174;DHT22;9719;49.322;8.536;2022-07-10T02:20:39;18.20;73.90
19174;DHT22;9719;49.322;8.536;2022-07-10T02:25:42;18.20;73.90
19174;DHT22;9719;49.322;8.536;2022-07-10T02:30:44;18.30;73.70
19174;DHT22;9719;49.322;8.536;2022-07-10T02:35:46;18.20;73.30
19174;DHT22;9719;49.322;8.536;2022-07-10T02:40:50;18.20;73.20
19174;DHT22;9719;49.322;8.536;2022-07-10T02:45:52;18.20;73.20
19174;DHT22;9719;49.322;8.536;2022-07-10T02:50:54;18.20;73.20
19174;DHT22;9719;49.322;8.536;2022-07-10T02:55:57;18.10;73.20
19174;DHT22;9719;49.322;8.536;2022-07-10T03:00:59;18.20;73.10
19174;DHT22;9719;49.322;8.536;2022-07-10T03:06:01;18.20;72.90
19174;DHT22;9719;49.322;8.536;2022-07-10T03:11:04;18.20;72.60
19174;DHT22;9719;49.322;8.536;2022-07-10T03:16:06;18.20;72.30
19174;DHT22;9719;49.322;8.536;2022-07-10T03:21:08;18.20;72.00
19174;DHT22;9719;49.322;8.536;2022-07-10T03:26:12;18.20;71.80
19174;DHT22;9719;49.322;8.536;2022-07-10T03:31:14;18.10;71.60
19174;DHT22;9719;49.322;8.536;2022-07-10T03:36:16;18.20;71.50
19174;DHT22;9719;49.322;8.536;2022-07-10T03:41:19;18.20;71.30
19174;DHT22;9719;49.322;8.536;2022-07-10T03:46:21;18.10;71.50
19174;DHT22;9719;49.322;8.536;2022-07-10T03:51:23;17.90;71.20
19174;DHT22;9719;49.322;8.536;2022-07-10T03:56:26;17.90;71.40
19174;DHT22;9719;49.322;8.536;2022-07-10T04:01:45;17.80;71.50
19174;DHT22;9719;49.322;8.536;2022-07-10T04:06:47;17.70;71.60
19174;DHT22;9719;49.322;8.536;2022-07-10T04:11:51;17.70;71.60
19174;DHT22;9719;49.322;8.536;2022-07-10T04:16:53;17.70;71.70
19174;DHT22;9719;49.322;8.536;2022-07-10T04:21:55;17.60;71.90
19174;DHT22;9719;49.322;8.536;2022-07-10T04:26:58;17.70;72.00
19174;DHT22;9719;49.322;8.536;2022-07-10T04:32:00;17.60;72.10
19174;DHT22;9719;49.322;8.536;2022-07-10T04:37:02;17.50;72.20
19174;DHT22;9719;49.322;8.536;2022-07-10T04:42:06;17.50;72.20
19174;DHT22;9719;49.322;8.536;2022-07-10T04:47:08;17.40;72.30
19174;DHT22;9719;49.322;8.536;2022-07-10T04:52:10;17.40;72.20
19174;DHT22;9719;49.322;8.536;2022-07-10T04:57:14;17.40;72.30
19174;DHT22;9719;49.322;8.536;2022-07-10T05:02:16;17.50;72.20
19174;DHT22;9719;49.322;8.536;2022-07-10T05:07:17;17.60;72.40
19174;DHT22;9719;49.322;8.536;2022-07-10T05:12:21;17.70;72.20
19174;DHT22;9719;49.322;8.536;2022-07-10T05:17:23;17.90;72.00
19174;DHT22;9719;49.322;8.536;2022-07-10T05:22:25;17.90;71.80
19174;DHT22;9719;49.322;8.536;2022-07-10T05:27:28;18.10;71.00
19174;DHT22;9719;49.322;8.536;2022-07-10T05:32:30;18.00;70.50
19174;DHT22;9719;49.322;8.536;2022-07-10T05:37:33;18.00;70.50
19174;DHT22;9719;49.322;8.536;2022-07-10T05:42:36;18.00;70.20
19174;DHT22;9719;49.322;8.536;2022-07-10T05:47:38;18.10;70.30
19174;DHT22;9719;49.322;8.536;2022-07-10T05:52:40;18.30;69.50
19174;DHT22;9719;49.322;8.536;2022-07-10T05:57:44;18.30;68.80
19174;DHT22;9719;49.322;8.536;2022-07-10T06:02:46;18.40;68.50
19174;DHT22;9719;49.322;8.536;2022-07-10T06:07:48;18.70;68.00
19174;DHT22;9719;49.322;8.536;2022-07-10T06:12:52;18.90;67.20
19174;DHT22;9719;49.322;8.536;2022-07-10T06:17:56;19.00;65.80
19174;DHT22;9719;49.322;8.536;2022-07-10T06:22:58;19.00;65.70
19174;DHT22;9719;49.322;8.536;2022-07-10T06:28:02;18.90;65.20
19174;DHT22;9719;49.322;8.536;2022-07-10T06:33:04;18.70;65.40
19174;DHT22;9719;49.322;8.536;2022-07-10T06:38:06;18.70;65.60
19174;DHT22;9719;49.322;8.536;2022-07-10T06:43:09;18.80;65.00
19174;DHT22;9719;49.322;8.536;2022-07-10T06:48:11;18.70;64.50
19174;DHT22;9719;49.322;8.536;2022-07-10T06:53:13;18.50;64.60
19174;DHT22;9719;49.322;8.536;2022-07-10T06:58:18;18.40;64.90
19174;DHT22;9719;49.322;8.536;2022-07-10T07:03:20;18.40;64.90
19174;DHT22;9719;49.322;8.536;2022-07-10T07:08:22;18.60;64.70
19174;DHT22;9719;49.322;8.536;2022-07-10T07:13:25;18.80;63.70
19174;DHT22;9719;49.322;8.536;2022-07-10T07:18:27;18.90;63.00
19174;DHT22;9719;49.322;8.536;2022-07-10T07:23:33;19.00;62.80
19174;DHT22;9719;49.322;8.536;2022-07-10T07:28:36;19.10;61.60
19174;DHT22;9719;49.322;8.536;2022-07-10T07:33:39;19.10;61.50
19174;DHT22;9719;49.322;8.536;2022-07-10T07:38:41;19.20;61.50
19174;DHT22;9719;49.322;8.536;2022-07-10T07:43:44;19.10;60.60
19174;DHT22;9719;49.322;8.536;2022-07-10T07:48:46;19.10;60.60
19174;DHT22;9719;49.322;8.536;2022-07-10T07:53:48;19.10;59.90
19174;DHT22;9719;49.322;8.536;2022-07-10T07:58:51;19.00;59.60
19174;DHT22;9719;49.322;8.536;2022-07-10T08:03:53;19.00;59.40
19174;DHT22;9719;49.322;8.536;2022-07-10T08:08:56;19.10;58.90
19174;DHT22;9719;49.322;8.536;2022-07-10T08:13:59;19.20;58.70
19174;DHT22;9719;49.322;8.536;2022-07-10T08:19:01;19.40;58.30
19174;DHT22;9719;49.322;8.536;2022-07-10T08:24:04;19.50;58.10
19174;DHT22;9719;49.322;8.536;2022-07-10T08:29:07;19.60;57.60
19174;DHT22;9719;49.322;8.536;2022-07-10T08:34:09;19.70;57.30
19174;DHT22;9719;49.322;8.536;2022-07-10T08:39:11;19.80;56.90
19174;DHT22;9719;49.322;8.536;2022-07-10T08:44:14;19.90;56.80
19174;DHT22;9719;49.322;8.536;2022-07-10T08:49:17;20.00;56.20
19174;DHT22;9719;49.322;8.536;2022-07-10T08:54:19;20.20;55.90
19174;DHT22;9719;49.322;8.536;2022-07-10T08:59:23;20.60;55.60
19174;DHT22;9719;49.322;8.536;2022-07-10T09:04:26;20.80;54.10
19174;DHT22;9719;49.322;8.536;2022-07-10T09:09:28;20.80;54.10
19174;DHT22;9719;49.322;8.536;2022-07-10T09:14:31;21.00;53.60
19174;DHT22;9719;49.322;8.536;2022-07-10T09:19:34;21.60;53.20
19174;DHT22;9719;49.322;8.536;2022-07-10T09:24:37;22.60;51.10
19174;DHT22;9719;49.322;8.536;2022-07-10T09:29:49;23.40;49.90
19174;DHT22;9719;49.322;8.536;2022-07-10T09:34:54;24.70;47.90
19174;DHT22;9719;49.322;8.536;2022-07-10T09:40:10;25.80;44.40
19174;DHT22;9719;49.322;8.536;2022-07-10T09:45:18;26.70;42.50
19174;DHT22;9719;49.322;8.536;2022-07-10T09:50:25;27.60;41.20
19174;DHT22;9719;49.322;8.536;2022-07-10T09:55:29;28.40;39.40
19174;DHT22;9719;49.322;8.536;2022-07-10T10:00:34;28.50;37.30
19174;DHT22;9719;49.322;8.536;2022-07-10T10:05:41;28.70;34.60
19174;DHT22;9719;49.322;8.536;2022-07-10T10:10:45;29.00;35.40
19174;DHT22;9719;49.322;8.536;2022-07-10T10:15:50;29.20;35.40
19174;DHT22;9719;49.322;8.536;2022-07-10T10:20:53;29.00;32.40
19174;DHT22;9719;49.322;8.536;2022-07-10T10:25:56;27.70;33.20
19174;DHT22;9719;49.322;8.536;2022-07-10T10:31:01;26.70;35.50
19174;DHT22;9719;49.322;8.536;2022-07-10T10:36:04;26.50;36.40
19174;DHT22;9719;49.322;8.536;2022-07-10T10:41:24;26.20;36.20
19174;DHT22;9719;49.322;8.536;2022-07-10T10:46:28;25.40;36.70
19174;DHT22;9719;49.322;8.536;2022-07-10T10:51:57;24.80;38.40
19174;DHT22;9719;49.322;8.536;2022-07-10T10:57:11;24.50;39.40
19174;DHT22;9719;49.322;8.536;2022-07-10T11:02:25;24.50;39.90
19174;DHT22;9719;49.322;8.536;2022-07-10T11:07:51;24.10;39.70
19174;DHT22;9719;49.322;8.536;2022-07-10T11:13:00;23.80;41.10
19174;DHT22;9719;49.322;8.536;2022-07-10T11:18:05;23.90;41.40
19174;DHT22;9719;49.322;8.536;2022-07-10T11:23:43;23.90;41.70
19174;DHT22;9719;49.322;8.536;2022-07-10T11:28:51;24.00;40.90
19174;DHT22;9719;49.322;8.536;2022-07-10T11:33:56;24.00;41.10
19174;DHT22;9719;49.322;8.536;2022-07-10T11:39:00;24.10;40.80
19174;DHT22;9719;49.322;8.536;2022-07-10T11:44:03;24.10;41.60
19174;DHT22;9719;49.322;8.536;2022-07-10T11:49:07;24.20;40.70
19174;DHT22;9719;49.322;8.536;2022-07-10T11:54:11;24.30;40.50
19174;DHT22;9719;49.322;8.536;2022-07-10T11:59:14;24.40;39.70
19174;DHT22;9719;49.322;8.536;2022-07-10T12:04:20;24.30;39.60
19174;DHT22;9719;49.322;8.536;2022-07-10T12:09:25;24.20;40.20
19174;DHT22;9719;49.322;8.536;2022-07-10T12:14:27;24.30;39.90
19174;DHT22;9719;49.322;8.536;2022-07-10T12:19:36;24.30;40.30
19174;DHT22;9719;49.322;8.536;2022-07-10T12:24:41;24.30;40.30
19174;DHT22;9719;49.322;8.536;2022-07-10T12:29:43;24.50;40.30
19174;DHT22;9719;49.322;8.536;2022-07-10T12:34:46;24.60;40.30
19174;DHT22;9719;49.322;8.536;2022-07-10T12:39:52;24.80;40.30
19174;DHT22;9719;49.322;8.536;2022-07-10T12:44:54;25.00;40.50
19174;DHT22;9719;49.322;8.536;2022-07-10T12:50:03;25.10;40.30
19174;DHT22;9719;49.322;8.536;2022-07-10T12:55:09;25.30;40.00
19174;DHT22;9719;49.322;8.536;2022-07-10T13:00:15;25.50;39.60
19174;DHT22;9719;49.322;8.536;2022-07-10T13:05:27;25.70;39.20
19174;DHT22;9719;49.322;8.536;2022-07-10T13:10:30;25.50;39.00
19174;DHT22;9719;49.322;8.536;2022-07-10T13:15:34;25.50;39.60
19174;DHT22;9719;49.322;8.536;2022-07-10T13:20:41;25.50;39.50
19174;DHT22;9719;49.322;8.536;2022-07-10T13:25:43;25.40;39.30
19174;DHT22;9719;49.322;8.536;2022-07-10T13:30:45;25.30;39.50
19174;DHT22;9719;49.322;8.536;2022-07-10T13:35:51;25.40;39.90
19174;DHT22;9719;49.322;8.536;2022-07-10T13:41:01;25.60;39.90
19174;DHT22;9719;49.322;8.536;2022-07-10T13:46:04;25.70;39.40
19174;DHT22;9719;49.322;8.536;2022-07-10T13:51:08;25.50;39.20
19174;DHT22;9719;49.322;8.536;2022-07-10T13:56:11;25.30;40.10
19174;DHT22;9719;49.322;8.536;2022-07-10T14:01:13;25.30;40.10
19174;DHT22;9719;49.322;8.536;2022-07-10T14:06:17;25.10;39.90
19174;DHT22;9719;49.322;8.536;2022-07-10T14:11:21;24.80;40.20
19174;DHT22;9719;49.322;8.536;2022-07-10T14:16:24;24.60;41.20
19174;DHT22;9719;49.322;8.536;2022-07-10T14:21:28;24.50;41.50
19174;DHT22;9719;49.322;8.536;2022-07-10T14:26:30;24.30;41.60
19174;DHT22;9719;49.322;8.536;2022-07-10T14:31:36;24.20;42.10
19174;DHT22;9719;49.322;8.536;2022-07-10T14:36:39;24.20;42.60
19174;DHT22;9719;49.322;8.536;2022-07-10T14:41:42;24.20;42.10
19174;DHT22;9719;49.322;8.536;2022-07-10T14:46:44;24.10;42.80
19174;DHT22;9719;49.322;8.536;2022-07-10T14:51:50;24.10;42.50
19174;DHT22;9719;49.322;8.536;2022-07-10T14:56:52;24.10;42.50
19174;DHT22;9719;49.322;8.536;2022-07-10T15:01:55;24.10;42.80
19174;DHT22;9719;49.322;8.536;2022-07-10T15:06:59;24.20;43.20
19174;DHT22;9719;49.322;8.536;2022-07-10T15:12:02;24.30;42.80
19174;DHT22;9719;49.322;8.536;2022-07-10T15:17:04;24.30;42.80
19174;DHT22;9719;49.322;8.536;2022-07-10T15:22:11;24.20;42.90
19174;DHT22;9719;49.322;8.536;2022-07-10T15:27:13;23.90;42.80
19174;DHT22;9719;49.322;8.536;2022-07-10T15:32:15;23.70;43.40
19174;DHT22;9719;49.322;8.536;2022-07-10T15:37:19;23.60;43.90
19174;DHT22;9719;49.322;8.536;2022-07-10T15:42:21;23.40;44.20
19174;DHT22;9719;49.322;8.536;2022-07-10T15:47:26;23.40;44.50
19174;DHT22;9719;49.322;8.536;2022-07-10T15:52:30;23.40;44.70
19174;DHT22;9719;49.322;8.536;2022-07-10T15:57:32;23.40;44.70
19174;DHT22;9719;49.322;8.536;2022-07-10T16:02:34;23.40;44.70
19174;DHT22;9719;49.322;8.536;2022-07-10T16:07:37;23.30;45.00
19174;DHT22;9719;49.322;8.536;2022-07-10T16:12:40;23.20;44.90
19174;DHT22;9719;49.322;8.536;2022-07-10T16:17:42;23.20;45.20
19174;DHT22;9719;49.322;8.536;2022-07-10T16:22:52;23.20;45.20
19174;DHT22;9719;49.322;8.536;2022-07-10T16:27:54;23.30;45.50
19174;DHT22;9719;49.322;8.536;2022-07-10T16:32:59;23.30;45.50
19174;DHT22;9719;49.322;8.536;2022-07-10T16:38:04;23.20;45.50
19174;DHT22;9719;49.322;8.536;2022-07-10T16:43:06;23.10;45.40
19174;DHT22;9719;49.322;8.536;2022-07-10T16:48:09;23.10;45.70
19174;DHT22;9719;49.322;8.536;2022-07-10T16:53:13;23.10;46.00
19174;DHT22;9719;49.322;8.536;2022-07-10T16:58:15;23.00;46.10
19174;DHT22;9719;49.322;8.536;2022-07-10T17:03:17;23.00;46.20
19174;DHT22;9719;49.322;8.536;2022-07-10T17:08:20;23.00;46.30
19174;DHT22;9719;49.322;8.536;2022-07-10T17:13:22;23.00;46.60
19174;DHT22;9719;49.322;8.536;2022-07-10T17:18:26;23.00;47.00
19174;DHT22;9719;49.322;8.536;2022-07-10T17:23:30;23.00;46.80
19174;DHT22;9719;49.322;8.536;2022-07-10T17:28:31;22.90;47.20
19174;DHT22;9719;49.322;8.536;2022-07-10T17:33:33;22.80;47.40
19174;DHT22;9719;49.322;8.536;2022-07-10T17:38:37;22.80;47.60
19174;DHT22;9719;49.322;8.536;2022-07-10T17:43:40;22.70;48.00
19174;DHT22;9719;49.322;8.536;2022-07-10T17:48:42;22.70;47.80
19174;DHT22;9719;49.322;8.536;2022-07-10T17:53:46;22.70;48.00
19174;DHT22;9719;49.322;8.536;2022-07-10T17:58:48;22.60;48.40
19174;DHT22;9719;49.322;8.536;2022-07-10T18:03:50;22.60;48.30
19174;DHT22;9719;49.322;8.536;2022-07-10T18:08:54;22.60;48.30
19174;DHT22;9719;49.322;8.536;2022-07-10T18:13:56;22.50;48.50
19174;DHT22;9719;49.322;8.536;2022-07-10T18:18:58;22.40;48.70
19174;DHT22;9719;49.322;8.536;2022-07-10T18:24:01;22.40;48.70
19174;DHT22;9719;49.322;8.536;2022-07-10T18:29:03;22.30;48.80
19174;DHT22;9719;49.322;8.536;2022-07-10T18:34:05;22.30;49.10
19174;DHT22;9719;49.322;8.536;2022-07-10T18:39:26;22.20;49.30
19174;DHT22;9719;49.322;8.536;2022-07-10T18:44:28;22.20;49.80
19174;DHT22;9719;49.322;8.536;2022-07-10T18:49:30;22.10;49.80
19174;DHT22;9719;49.322;8.536;2022-07-10T18:54:33;22.10;50.00
19174;DHT22;9719;49.322;8.536;2022-07-10T18:59:36;22.00;50.20
19174;DHT22;9719;49.322;8.536;2022-07-10T19:04:38;22.00;50.60
19174;DHT22;9719;49.322;8.536;2022-07-10T19:09:43;21.90;50.70
19174;DHT22;9719;49.322;8.536;2022-07-10T19:14:46;21.80;51.00
19174;DHT22;9719;49.322;8.536;2022-07-10T19:19:48;21.70;51.20
19174;DHT22;9719;49.322;8.536;2022-07-10T19:24:51;21.60;51.50
19174;DHT22;9719;49.322;8.536;2022-07-10T19:29:54;21.50;52.00
19174;DHT22;9719;49.322;8.536;2022-07-10T19:34:56;21.40;52.10
19174;DHT22;9719;49.322;8.536;2022-07-10T19:39:59;21.30;52.40
19174;DHT22;9719;49.322;8.536;2022-07-10T19:45:02;21.20;52.60
19174;DHT22;9719;49.322;8.536;2022-07-10T19:50:05;21.10;53.00
19174;DHT22;9719;49.322;8.536;2022-07-10T19:55:09;21.10;53.20
19174;DHT22;9719;49.322;8.536;2022-07-10T20:00:12;21.10;53.60
19174;DHT22;9719;49.322;8.536;2022-07-10T20:05:14;21.10;53.70
19174;DHT22;9719;49.322;8.536;2022-07-10T20:10:17;21.10;53.90
19174;DHT22;9719;49.322;8.536;2022-07-10T20:15:19;21.10;54.10
19174;DHT22;9719;49.322;8.536;2022-07-10T20:20:21;21.10;54.20
19174;DHT22;9719;49.322;8.536;2022-07-10T20:25:26;21.10;54.30
19174;DHT22;9719;49.322;8.536;2022-07-10T20:30:28;21.10;54.50
19174;DHT22;9719;49.322;8.536;2022-07-10T20:40:34;21.00;54.90
19174;DHT22;9719;49.322;8.536;2022-07-10T20:45:37;20.90;55.20
19174;DHT22;9719;49.322;8.536;2022-07-10T20:50:39;20.80;55.20
19174;DHT22;9719;49.322;8.536;2022-07-10T20:55:42;20.60;55.50
19174;DHT22;9719;49.322;8.536;2022-07-10T21:00:44;20.60;55.90
19174;DHT22;9719;49.322;8.536;2022-07-10T21:05:46;20.50;56.20
19174;DHT22;9719;49.322;8.536;2022-07-10T21:10:50;20.40;56.40
19174;DHT22;9719;49.322;8.536;2022-07-10T21:15:52;20.40;56.70
19174;DHT22;9719;49.322;8.536;2022-07-10T21:20:54;20.40;56.90
19174;DHT22;9719;49.322;8.536;2022-07-10T21:25:58;20.30;57.20
19174;DHT22;9719;49.322;8.536;2022-07-10T21:31:00;20.30;57.60
19174;DHT22;9719;49.322;8.536;2022-07-10T21:36:02;20.30;57.80
19174;DHT22;9719;49.322;8.536;2022-07-10T21:41:06;20.30;57.60
19174;DHT22;9719;49.322;8.536;2022-07-10T21:46:08;20.30;57.70
19174;DHT22;9719;49.322;8.536;2022-07-10T21:51:10;20.20;57.70
19174;DHT22;9719;49.322;8.536;2022-07-10T21:56:14;20.20;58.10
19174;DHT22;9719;49.322;8.536;2022-07-10T22:01:16;20.20;58.30
19174;DHT22;9719;49.322;8.536;2022-07-10T22:06:18;20.20;58.40
19174;DHT22;9719;49.322;8.536;2022-07-10T22:11:21;20.20;58.40
19174;DHT22;9719;49.322;8.536;2022-07-10T22:16:24;20.20;58.60
19174;DHT22;9719;49.322;8.536;2022-07-10T22:21:26;20.20;58.80
19174;DHT22;9719;49.322;8.536;2022-07-10T22:26:29;20.20;59.00
19174;DHT22;9719;49.322;8.536;2022-07-10T22:31:31;20.10;59.30
19174;DHT22;9719;49.322;8.536;2022-07-10T22:36:33;20.00;59.60
19174;DHT22;9719;49.322;8.536;2022-07-10T22:41:37;20.00;59.90
19174;DHT22;9719;49.322;8.536;2022-07-10T22:46:39;20.00;60.30
19174;DHT22;9719;49.322;8.536;2022-07-10T22:51:41;19.90;60.70
19174;DHT22;9719;49.322;8.536;2022-07-10T22:56:44;19.80;60.90
19174;DHT22;9719;49.322;8.536;2022-07-10T23:01:46;19.80;61.10
19174;DHT22;9719;49.322;8.536;2022-07-10T23:06:48;19.80;61.30
19174;DHT22;9719;49.322;8.536;2022-07-10T23:11:52;19.80;61.40
19174;DHT22;9719;49.322;8.536;2022-07-10T23:16:54;19.80;61.50
19174;DHT22;9719;49.322;8.536;2022-07-10T23:21:56;19.80;61.60
19174;DHT22;9719;49.322;8.536;2022-07-10T23:26:59;19.80;61.90
19174;DHT22;9719;49.322;8.536;2022-07-10T23:32:01;19.80;62.00
19174;DHT22;9719;49.322;8.536;2022-07-10T23:37:04;19.80;62.20
19174;DHT22;9719;49.322;8.536;2022-07-10T23:42:08;19.70;62.40
19174;DHT22;9719;49.322;8.536;2022-07-10T23:47:10;19.70;62.70
19174;DHT22;9719;49.322;8.536;2022-07-10T23:52:12;19.70;62.90
19174;DHT22;9719;49.322;8.536;2022-07-10T23:57:18;19.60;63.00
